createdAt,value
2019-04-05T00:04:47.752Z,98750.73
2019-04-05T00:09:51.206Z,98742.40
2019-04-05T00:14:54.665Z,98724.96
2019-04-05T00:19:58.287Z,98724.96
2019-04-05T00:25:01.745Z,98728.34
2019-04-05T00:30:10.145Z,98728.34
2019-04-05T00:35:13.604Z,98740.86
2019-04-05T00:40:17.228Z,98756.58
2019-04-05T00:45:27.957Z,98769.84
2019-04-05T00:50:26.138Z,98776.16
2019-04-05T00:55:29.586Z,98788.65
2019-04-05T01:00:33.069Z,98796.20
2019-04-05T01:05:36.759Z,98797.43
2019-04-05T01:10:40.217Z,98789.27
2019-04-05T01:15:43.676Z,98801.44
2019-04-05T01:20:49.078Z,98801.27
2019-04-05T01:25:54.250Z,98805.59
2019-04-05T01:30:57.774Z,98816.54
2019-04-05T01:36:01.217Z,98822.86
2019-04-05T01:41:04.749Z,98835.22
2019-04-05T01:46:08.635Z,98822.86
2019-04-05T01:51:12.091Z,98833.06
2019-04-05T01:56:15.574Z,98844.94
2019-04-05T02:01:19.269Z,98837.52
2019-04-05T02:06:22.728Z,98846.16
2019-04-05T02:11:26.249Z,98849.55
2019-04-05T02:16:29.774Z,98853.88
2019-04-05T02:21:33.227Z,98847.71
2019-04-05T02:26:36.675Z,98845.84
2019-04-05T02:31:40.196Z,98858.33
2019-04-05T02:36:43.643Z,98861.42
2019-04-05T02:41:48.634Z,98868.04
2019-04-05T02:46:54.831Z,98863.27
2019-04-05T02:52:00.726Z,98864.49
2019-04-05T02:57:04.711Z,98863.27
2019-04-05T03:02:08.922Z,98861.88
2019-04-05T03:07:13.939Z,98860.48
2019-04-05T03:12:19.232Z,98861.72
2019-04-05T03:17:23.897Z,98859.55
2019-04-05T03:22:29.689Z,98847.67
2019-04-05T03:27:36.230Z,98847.67
2019-04-05T03:32:39.688Z,98856.16
2019-04-05T03:37:43.385Z,98868.49
2019-04-05T03:42:46.838Z,98893.47
2019-04-05T03:47:50.395Z,98893.18
2019-04-05T03:52:53.829Z,98903.50
2019-04-05T03:57:57.347Z,98905.05
2019-04-05T04:03:01.179Z,98907.67
2019-04-05T04:08:04.974Z,98914.61
2019-04-05T04:13:08.697Z,98922.94
2019-04-05T04:18:12.329Z,98931.09
2019-04-05T04:23:17.013Z,98943.59
2019-04-05T04:28:21.408Z,98953.91
2019-04-05T04:33:24.935Z,98963.63
2019-04-05T04:38:28.546Z,98976.11
2019-04-05T04:43:32.002Z,98981.50
2019-04-05T04:48:36.698Z,98980.28
2019-04-05T04:53:40.687Z,98983.66
2019-04-05T04:58:46.290Z,98987.22
2019-04-05T05:03:49.618Z,98977.34
2019-04-05T05:08:53.089Z,98992.60
2019-04-05T05:13:56.781Z,98987.66
2019-04-05T05:19:01.292Z,98987.66
2019-04-05T05:24:05.374Z,98994.44
2019-04-05T05:29:08.818Z,98999.38
2019-04-05T05:34:12.702Z,99009.56
2019-04-05T05:39:16.434Z,98999.86
2019-04-05T05:44:19.885Z,99005.54
2019-04-05T05:49:23.335Z,99010.18
2019-04-05T05:54:26.795Z,99012.18
2019-04-05T05:59:30.868Z,98998.30
2019-04-05T06:04:34.378Z,98998.14
2019-04-05T06:09:37.841Z,99009.41
2019-04-05T06:14:41.297Z,99009.41
2019-04-05T06:19:44.785Z,99019.53
2019-04-05T06:24:48.239Z,99026.14
2019-04-05T06:29:51.702Z,99026.14
2019-04-05T06:34:55.162Z,99020.14
2019-04-05T06:39:58.617Z,99019.81
2019-04-05T06:45:02.084Z,99024.59
2019-04-05T06:50:07.501Z,99022.76
2019-04-05T06:55:11.100Z,99026.30
2019-04-05T07:00:14.794Z,99035.86
2019-04-05T07:05:20.783Z,99034.30
2019-04-05T07:10:23.423Z,99050.34
2019-04-05T07:15:26.906Z,99062.66
2019-04-05T07:20:30.334Z,99067.44
2019-04-05T07:25:34.029Z,99081.48
2019-04-05T07:30:37.547Z,99076.89
2019-04-05T07:35:41.010Z,99085.73
2019-04-05T07:40:44.469Z,99082.50
2019-04-05T07:45:47.930Z,99089.67
2019-04-05T07:50:51.395Z,99097.42
2019-04-05T07:55:54.860Z,99099.16
2019-04-05T08:00:58.396Z,99099.70
2019-04-05T08:06:02.027Z,99106.75
2019-04-05T08:11:05.807Z,99103.18
2019-04-05T08:16:09.270Z,99103.95
2019-04-05T08:21:12.734Z,99113.09
2019-04-05T08:26:16.209Z,99116.33
2019-04-05T08:31:19.668Z,99111.28
2019-04-05T08:36:23.136Z,99126.97
2019-04-05T08:41:26.628Z,99127.16
2019-04-05T08:46:30.063Z,99118.72
2019-04-05T08:51:33.589Z,99114.59
2019-04-05T08:56:37.044Z,99124.72
2019-04-05T09:01:40.501Z,99120.12
2019-04-05T09:06:43.989Z,99122.25
2019-04-05T09:11:47.425Z,99127.56
2019-04-05T09:16:51.179Z,99135.22
2019-04-05T09:21:54.641Z,99134.22
2019-04-05T09:26:58.101Z,99128.30
2019-04-05T09:32:01.561Z,99132.66
2019-04-05T09:37:05.198Z,99140.58
2019-04-05T09:42:08.659Z,99138.80
2019-04-05T09:47:12.123Z,99138.26
2019-04-05T09:52:15.585Z,99130.59
2019-04-05T09:57:19.044Z,99140.97
2019-04-05T10:02:22.500Z,99137.13
2019-04-05T10:07:25.973Z,99137.22
2019-04-05T10:12:29.435Z,99135.09
2019-04-05T10:17:32.963Z,99136.38
2019-04-05T10:22:36.699Z,99147.00
2019-04-05T10:27:40.182Z,99144.23
2019-04-05T10:32:46.156Z,99151.22
2019-04-05T10:37:48.862Z,99147.87
2019-04-05T10:42:52.322Z,99147.16
2019-04-05T10:47:55.782Z,99150.41
2019-04-05T10:52:59.301Z,99157.68
2019-04-05T10:58:02.999Z,99159.57
2019-04-05T11:03:06.484Z,99152.33
2019-04-05T11:08:09.963Z,99157.61
2019-04-05T11:13:13.448Z,99156.55
2019-04-05T11:18:16.963Z,99157.30
2019-04-05T11:23:21.517Z,99153.04
2019-04-05T11:28:25.388Z,99157.53
2019-04-05T11:33:28.873Z,99153.38
2019-04-05T11:38:32.524Z,99151.68
2019-04-05T11:43:37.244Z,99150.46
2019-04-05T11:48:41.354Z,99167.44
2019-04-05T11:53:45.065Z,99162.84
2019-04-05T11:58:49.625Z,99155.91
2019-04-05T12:03:53.102Z,99153.43
2019-04-05T12:08:56.576Z,99152.21
2019-04-05T12:14:00.078Z,99148.39
2019-04-05T12:19:04.842Z,99148.55
2019-04-05T12:24:08.921Z,99150.41
2019-04-05T12:29:12.399Z,99156.59
2019-04-05T12:34:15.874Z,99154.44
2019-04-05T12:39:19.351Z,99153.34
2019-04-05T12:44:22.832Z,99146.41
2019-04-05T12:49:26.334Z,99151.35
2019-04-05T12:54:29.812Z,99143.20
2019-04-05T12:59:33.281Z,99130.10
2019-04-05T13:04:36.766Z,99129.33
2019-04-05T13:09:40.245Z,99127.50
2019-04-05T13:14:43.724Z,99127.66
2019-04-05T13:19:47.198Z,99122.11
2019-04-05T13:24:50.702Z,99127.22
2019-04-05T13:29:54.161Z,99124.58
2019-04-05T13:34:57.631Z,99118.28
2019-04-05T13:40:01.111Z,99114.25
2019-04-05T13:45:07.725Z,99120.14
2019-04-05T13:50:12.406Z,99118.59
2019-04-05T13:55:15.831Z,99120.30
2019-04-05T14:00:19.854Z,99114.92
2019-04-05T14:05:24.114Z,99107.20
2019-04-05T14:10:27.585Z,99104.43
2019-04-05T14:15:31.544Z,99104.59
2019-04-05T14:20:35.234Z,99101.98
2019-04-05T14:25:38.718Z,99103.52
2019-04-05T14:30:42.203Z,99109.06
2019-04-05T14:35:45.671Z,99108.62
2019-04-05T14:40:49.141Z,99108.45
2019-04-05T14:45:52.618Z,99117.88
2019-04-05T14:50:57.897Z,99109.39
2019-04-05T14:56:01.297Z,99100.63
2019-04-05T15:01:05.012Z,99085.80
2019-04-05T15:06:08.489Z,99087.72
2019-04-05T15:11:11.971Z,99084.75
2019-04-05T15:16:15.460Z,99086.14
2019-04-05T15:21:18.943Z,99082.94
2019-04-05T15:26:22.420Z,99081.20
2019-04-05T15:31:26.624Z,99085.72
2019-04-05T15:36:31.659Z,99089.88
2019-04-05T15:41:35.348Z,99093.27
2019-04-05T15:46:38.831Z,99083.55
2019-04-05T15:51:42.311Z,99089.27
2019-04-05T15:56:45.785Z,99087.27
2019-04-05T16:01:49.265Z,99078.34
2019-04-05T16:06:52.815Z,99081.72
2019-04-05T16:11:56.293Z,99075.39
2019-04-05T16:16:59.832Z,99069.37
2019-04-05T16:22:03.309Z,99067.98
2019-04-05T16:27:06.781Z,99065.06
2019-04-05T16:32:11.463Z,99076.02
2019-04-05T16:37:14.933Z,99074.97
2019-04-05T16:42:18.404Z,99071.74
2019-04-05T16:47:21.879Z,99063.41
2019-04-05T16:52:25.355Z,99071.74
2019-04-05T16:57:28.875Z,99067.27
2019-04-05T17:02:32.352Z,99067.94
2019-04-05T17:07:35.825Z,99073.09
2019-04-05T17:12:39.298Z,99069.22
2019-04-05T17:17:42.768Z,99063.50
2019-04-05T17:22:57.485Z,99057.63
2019-04-05T17:27:51.410Z,99054.07
2019-04-05T17:32:54.883Z,99069.20
2019-04-05T17:37:58.343Z,99076.92
2019-04-05T17:43:01.870Z,99073.37
2019-04-05T17:48:05.349Z,99082.61
2019-04-05T17:53:12.671Z,99085.86
2019-04-05T17:58:14.630Z,99092.94
2019-04-05T18:03:18.084Z,99092.19
2019-04-05T18:08:21.543Z,99099.74
2019-04-05T18:13:24.998Z,99104.52
2019-04-05T18:18:28.454Z,99096.80
2019-04-05T18:23:31.911Z,99100.19
2019-04-05T18:28:35.602Z,99088.92
2019-04-05T18:33:39.068Z,99090.92
2019-04-05T18:38:42.529Z,99098.47
2019-04-05T18:43:45.985Z,99110.35
2019-04-05T18:48:49.513Z,99106.03
2019-04-05T18:53:52.979Z,99110.03
2019-04-05T18:58:56.434Z,99112.19
2019-04-05T19:03:59.887Z,99110.64
2019-04-05T19:09:05.255Z,99112.64
2019-04-05T19:14:08.773Z,99100.01
2019-04-05T19:19:12.239Z,99113.89
2019-04-05T19:24:15.702Z,99112.50
2019-04-05T19:29:19.160Z,99113.72
2019-04-05T19:49:38.176Z,99119.56
2019-04-05T19:54:41.629Z,99116.78
2019-04-05T19:59:45.088Z,99116.61
2019-04-05T20:04:48.544Z,99121.55
2019-04-05T20:09:52.001Z,99124.94
2019-04-05T20:14:55.459Z,99120.00
2019-04-05T20:19:58.915Z,99117.84
2019-04-05T20:25:02.548Z,99122.00
2019-04-05T20:30:07.945Z,99122.00
2019-04-05T20:35:11.590Z,99122.00
2019-04-05T20:40:15.068Z,99126.00
2019-04-05T20:45:18.556Z,99120.00
2019-04-05T20:50:22.026Z,99136.66
2019-04-05T20:55:25.472Z,99140.05
2019-04-05T21:00:28.933Z,99137.27
2019-04-05T21:05:32.395Z,99137.27
2019-04-05T21:10:35.869Z,99134.97
2019-04-05T21:15:39.373Z,99145.59
2019-04-05T21:20:42.836Z,99139.87
2019-04-05T21:25:46.290Z,99148.37
2019-04-05T21:30:49.744Z,99146.07
2019-04-05T21:35:53.197Z,99141.91
2019-04-05T21:40:56.646Z,99150.38
2019-04-05T21:46:00.102Z,99151.76
2019-04-05T21:51:03.631Z,99153.76
2019-04-05T21:56:07.090Z,99152.37
2019-04-05T22:01:11.257Z,99153.02
2019-04-05T22:06:14.713Z,99156.39
2019-04-05T22:11:18.435Z,99157.78
2019-04-05T22:16:21.891Z,99160.39
2019-04-05T22:21:25.350Z,99159.78
2019-04-05T22:26:29.064Z,99154.23
2019-04-05T22:31:32.518Z,99167.50
2019-04-05T22:36:35.978Z,99162.56
2019-04-05T22:41:39.426Z,99165.94
2019-04-05T22:46:42.884Z,99171.05
2019-04-05T22:51:46.336Z,99165.94
2019-04-05T22:56:49.807Z,99163.00
2019-04-05T23:01:53.261Z,99171.50
2019-04-05T23:06:56.739Z,99179.83
2019-04-05T23:12:00.212Z,99174.27
2019-04-05T23:17:03.664Z,99182.77
2019-04-05T23:22:07.117Z,99183.82
2019-04-05T23:27:10.575Z,99185.37
2019-04-05T23:32:14.024Z,99202.80
2019-04-05T23:37:17.476Z,99205.58
2019-04-05T23:42:20.932Z,99211.74
2019-04-05T23:47:24.383Z,99213.12
2019-04-05T23:52:27.834Z,99218.07
2019-04-05T23:57:31.287Z,99215.91
